Аэропорт: Уйташ. Махачкала

ICAO: URML

METAR:
2021-10-23 01:30:00
URML 230130Z 00000MPS 0050 R32/M0200N FG BKN001 09/08 Q1019 R32/01//70 NOSIG RMK QBB040 MT OBSC QFE764/1019
METAR:
2021-10-22 23:00:00
TAF URML 222300Z 2300/2309 VRB01MPS 0400 FG SCT002 TEMPO 2300/2303 0100 FG BKN001 BECMG 2303/2305 30006G13MPS 2000 BR TEMPO 2305/2308 0350 FG